Time;durP1;ratioP1;P1;durP2;ratioP2;P2;SDS_P1;SDS_P2;PMS_P1;PMS_P2;Temp;Humidity;BMP_temperature;BMP_pressure;BME280_temperature;BME280_humidity;BME280_pressure;Samples;Min_cycle;Max_cycle;Signal;HPM_P1;HPM_P2
2022/12/17 13:06:41;;;;;;;35.50;29.33;;;11.10;70.20;;;;;;4991544;28;20484;-73
2022/12/17 13:09:15;;;;;;;35.03;30.23;;;11.70;65.50;;;;;;4989365;28;20982;-73
2022/12/17 13:11:59;;;;;;;39.90;31.37;;;12.10;63.10;;;;;;4991917;28;20473;-73
2022/12/17 13:14:28;;;;;;;39.97;31.83;;;11.30;61.60;;;;;;4986532;28;20457;-74
2022/12/17 13:17:15;;;;;;;40.43;32.10;;;10.60;62.80;;;;;;4989693;28;20462;-73
2022/12/17 13:19:46;;;;;;;38.60;33.20;;;10.50;64.10;;;;;;4985941;28;20446;-72
2022/12/17 13:22:26;;;;;;;38.20;31.07;;;12.00;62.50;;;;;;4990653;28;20442;-73
2022/12/17 13:24:55;;;;;;;41.83;31.80;;;13.10;59.60;;;;;;4989957;28;20450;-72
2022/12/17 13:27:48;;;;;;;38.00;33.90;;;13.50;57.10;;;;;;4983856;28;20549;-72
2022/12/17 13:30:16;;;;;;;45.27;35.87;;;12.70;56.40;;;;;;4990090;28;20467;-72
2022/12/17 13:33:02;;;;;;;39.87;34.20;;;11.40;58.50;;;;;;4991620;28;20445;-73
2022/12/17 13:35:57;;;;;;;40.57;32.13;;;9.90;61.00;;;;;;4980501;28;20955;-73
2022/12/17 13:38:39;;;;;;;37.87;31.13;;;8.80;64.30;;;;;;4984448;28;20442;-72
2022/12/17 13:41:11;;;;;;;44.53;34.87;;;7.10;69.30;;;;;;4990040;28;20458;-73
2022/12/17 13:43:52;;;;;;;40.93;31.37;;;5.70;76.90;;;;;;4991529;28;20438;-73
2022/12/17 13:46:22;;;;;;;39.97;31.57;;;4.50;88.20;;;;;;4990695;28;20465;-72
2022/12/17 13:49:19;;;;;;;53.90;34.40;;;3.60;93.60;;;;;;4990455;28;20982;-72
2022/12/17 13:51:44;;;;;;;49.73;34.00;;;2.80;98.10;;;;;;4989584;28;20534;-73
2022/12/17 13:54:16;;;;;;;46.00;33.10;;;1.70;99.90;;;;;;4995976;28;20520;-73
2022/12/17 13:56:43;;;;;;;50.90;33.07;;;0.80;99.90;;;;;;4989228;28;20204;-72
2022/12/17 13:59:35;;;;;;;52.77;33.40;;;0.40;99.90;;;;;;4992732;28;20580;-72
2022/12/17 14:02:04;;;;;;;48.73;31.83;;;-0.10;99.90;;;;;;4991483;28;20443;-74
2022/12/17 14:04:30;;;;;;;56.37;33.40;;;-0.30;99.90;;;;;;4993708;28;20467;-74
2022/12/17 14:07:01;;;;;;;49.93;31.43;;;-0.50;99.90;;;;;;4990436;28;20862;-74
2022/12/17 14:09:42;;;;;;;51.43;31.73;;;-0.80;99.90;;;;;;4986551;28;20473;-72
2022/12/17 14:12:21;;;;;;;64.00;32.70;;;-1.20;99.90;;;;;;4991058;28;20493;-75
2022/12/17 14:14:51;;;;;;;51.07;33.27;;;-1.60;99.90;;;;;;4988347;28;20447;-74
2022/12/17 14:17:19;;;;;;;49.00;30.53;;;-1.80;99.90;;;;;;4994959;28;20458;-74
2022/12/17 14:19:47;;;;;;;51.10;29.83;;;-1.80;99.90;;;;;;4994477;28;20961;-73
2022/12/17 14:22:22;;;;;;;54.90;30.00;;;-1.70;99.90;;;;;;4991862;28;20426;-73
2022/12/17 14:24:48;;;;;;;53.47;31.43;;;-1.60;99.90;;;;;;4994592;28;20434;-73
2022/12/17 14:27:24;;;;;;;56.10;31.73;;;-1.50;99.90;;;;;;4993546;28;21208;-74
2022/12/17 14:29:49;;;;;;;55.57;33.37;;;-1.50;99.90;;;;;;4991925;28;20207;-74
2022/12/17 14:32:34;;;;;;;53.30;32.77;;;-1.70;99.90;;;;;;4995154;28;20442;-73
2022/12/17 14:35:00;;;;;;;61.03;33.47;;;-1.70;99.90;;;;;;4986294;28;20518;-73
2022/12/17 14:37:26;;;;;;;52.50;30.97;;;-1.60;99.90;;;;;;4992906;28;20457;-74
2022/12/17 14:39:57;;;;;;;54.10;31.20;;;-1.70;99.90;;;;;;4986806;28;20187;-72
2022/12/17 14:42:24;;;;;;;60.50;31.93;;;-2.00;99.90;;;;;;4992828;28;20466;-73
2022/12/17 14:45:06;;;;;;;42.63;29.33;;;-2.30;99.90;;;;;;4994474;28;20442;-73
2022/12/17 14:47:34;;;;;;;54.90;31.10;;;-2.70;99.90;;;;;;4991118;28;20629;-73
2022/12/17 14:50:22;;;;;;;55.00;31.13;;;-2.80;99.90;;;;;;4992540;28;21099;-73
2022/12/17 14:52:52;;;;;;;55.50;29.50;;;-2.90;99.90;;;;;;4992164;28;20851;-74
2022/12/17 14:55:30;;;;;;;58.10;29.80;;;-3.20;99.90;;;;;;4988917;28;20924;-73
2022/12/17 14:58:13;;;;;;;57.33;31.30;;;-2.90;99.90;;;;;;4986255;28;20908;-73
2022/12/17 15:00:42;;;;;;;53.40;30.60;;;-2.90;99.90;;;;;;4992431;28;20923;-75
2022/12/17 15:03:22;;;;;;;58.60;33.23;;;-2.80;99.90;;;;;;4988157;28;20433;-75
2022/12/17 15:06:10;;;;;;;54.10;33.00;;;-2.80;99.90;;;;;;4990336;28;20488;-76
2022/12/17 15:08:40;;;;;;;62.47;32.83;;;-2.90;99.90;;;;;;4987180;28;20470;-76
2022/12/17 15:11:06;;;;;;;58.23;32.73;;;-3.00;99.90;;;;;;4991224;28;20483;-75
2022/12/17 15:13:31;;;;;;;54.50;30.93;;;-3.20;99.90;;;;;;4993246;28;21005;-75
2022/12/17 15:15:57;;;;;;;67.37;38.90;;;-3.60;99.90;;;;;;4993342;28;20191;-75
2022/12/17 15:18:22;;;;;;;53.80;32.33;;;-3.40;99.90;;;;;;4993961;28;20641;-75
2022/12/17 15:20:48;;;;;;;62.13;35.40;;;-3.50;99.90;;;;;;4992167;28;20609;-75
2022/12/17 15:23:21;;;;;;;64.03;33.83;;;-3.60;99.90;;;;;;4992245;28;20192;-75
2022/12/17 15:25:48;;;;;;;59.20;34.80;;;-3.60;99.90;;;;;;4992917;28;20196;-75
2022/12/17 15:28:15;;;;;;;61.43;34.80;;;-3.60;99.90;;;;;;4992152;28;20449;-75
2022/12/17 15:30:41;;;;;;;70.33;37.00;;;-3.60;99.90;;;;;;4987682;28;20948;-75
2022/12/17 15:33:08;;;;;;;64.33;32.93;;;-3.60;99.90;;;;;;4975301;28;20486;-73
2022/12/17 15:35:35;;;;;;;56.00;32.77;;;-3.60;99.90;;;;;;4991963;28;20548;-73
2022/12/17 15:38:00;;;;;;;68.27;34.90;;;-3.80;99.90;;;;;;4993368;28;20506;-73
2022/12/17 15:40:26;;;;;;;61.30;33.80;;;-4.00;99.90;;;;;;4992493;28;20427;-73
2022/12/17 15:43:10;;;;;;;69.00;35.20;;;-4.00;99.90;;;;;;4992324;28;20234;-73
2022/12/17 15:45:39;;;;;;;68.30;35.90;;;-4.10;99.90;;;;;;4989323;28;20259;-73
2022/12/17 15:48:04;;;;;;;53.53;33.03;;;-4.10;99.90;;;;;;4991924;28;20983;-74
2022/12/17 15:50:30;;;;;;;61.30;35.37;;;-4.10;99.90;;;;;;4992050;28;20462;-73
2022/12/17 15:52:56;;;;;;;69.77;35.47;;;-4.10;99.90;;;;;;4990104;28;20211;-73
2022/12/17 15:55:21;;;;;;;61.67;35.07;;;-4.20;99.90;;;;;;4986782;28;20264;-73
2022/12/17 15:57:47;;;;;;;63.83;32.63;;;-4.20;99.90;;;;;;4988094;28;20194;-73
2022/12/17 16:00:13;;;;;;;65.90;33.40;;;-4.20;99.90;;;;;;4991524;28;20188;-75
2022/12/17 16:02:39;;;;;;;63.80;33.67;;;-4.30;99.90;;;;;;4988626;28;20238;-73
2022/12/17 16:05:05;;;;;;;75.27;35.10;;;-4.30;99.90;;;;;;4992897;28;20435;-73
2022/12/17 16:07:30;;;;;;;61.47;34.20;;;-4.40;99.90;;;;;;4990913;28;20273;-73
2022/12/17 16:09:56;;;;;;;63.87;33.67;;;-4.40;99.90;;;;;;4990826;28;20467;-73
2022/12/17 16:12:21;;;;;;;63.20;36.30;;;-4.40;99.90;;;;;;4993044;28;20258;-73
2022/12/17 16:14:47;;;;;;;65.03;35.37;;;-4.40;99.90;;;;;;4990779;28;20187;-73
2022/12/17 16:17:13;;;;;;;59.33;33.57;;;-4.50;99.90;;;;;;4977098;28;20239;-73
2022/12/17 16:19:38;;;;;;;78.30;33.83;;;-4.50;99.90;;;;;;4991688;28;20317;-73
2022/12/17 16:22:04;;;;;;;61.83;31.37;;;-4.60;99.90;;;;;;4989894;28;20187;-72
2022/12/17 16:24:29;;;;;;;58.23;32.40;;;-4.50;99.90;;;;;;4991818;28;20654;-72
2022/12/17 16:26:55;;;;;;;55.87;31.87;;;-4.60;99.90;;;;;;4992112;28;20207;-72
2022/12/17 16:29:20;;;;;;;59.33;31.00;;;-4.60;99.90;;;;;;4990162;28;20261;-70
2022/12/17 16:31:48;;;;;;;61.43;33.60;;;-4.70;99.90;;;;;;4989332;28;20186;-71
2022/12/17 16:34:13;;;;;;;60.37;33.07;;;-4.80;99.90;;;;;;4985699;28;20203;-71
2022/12/17 16:36:39;;;;;;;69.93;35.37;;;-4.80;99.90;;;;;;4987432;28;21033;-70
2022/12/17 16:39:05;;;;;;;72.20;37.67;;;-4.80;99.90;;;;;;4992176;28;20270;-72
2022/12/17 16:41:31;;;;;;;66.40;33.47;;;-4.80;99.90;;;;;;4988075;28;20183;-73
2022/12/17 16:43:56;;;;;;;57.57;32.50;;;-4.80;99.90;;;;;;4991450;28;20645;-72
2022/12/17 16:46:37;;;;;;;65.30;33.20;;;-4.80;99.90;;;;;;4989341;28;20510;-74
2022/12/17 16:49:10;;;;;;;65.00;34.47;;;-4.90;99.90;;;;;;4987497;28;20611;-70
2022/12/17 16:51:36;;;;;;;71.27;34.77;;;-4.90;99.90;;;;;;4991465;28;20505;-71
2022/12/17 16:54:08;;;;;;;79.43;37.30;;;-4.80;99.90;;;;;;4991017;28;20435;-70
2022/12/17 16:56:34;;;;;;;67.03;33.37;;;-4.90;99.90;;;;;;4986121;28;20458;-71
2022/12/17 16:59:03;;;;;;;62.63;33.63;;;-4.90;99.90;;;;;;4983088;28;20489;-71
2022/12/17 17:01:28;;;;;;;65.30;33.90;;;-4.90;99.90;;;;;;4983835;28;20478;-72
2022/12/17 17:03:55;;;;;;;73.43;35.83;;;-5.00;99.90;;;;;;4990288;28;20827;-71
2022/12/17 17:06:22;;;;;;;68.90;33.90;;;-5.10;99.90;;;;;;4987068;28;20209;-71
2022/12/17 17:08:47;;;;;;;65.63;35.60;;;-5.20;99.90;;;;;;4992532;28;20902;-71
2022/12/17 17:11:20;;;;;;;60.13;32.93;;;-5.20;99.90;;;;;;4990952;28;20434;-72
2022/12/17 17:13:46;;;;;;;71.47;34.70;;;-5.20;99.90;;;;;;4989344;28;20521;-72
2022/12/17 17:16:12;;;;;;;63.63;32.53;;;-5.20;99.90;;;;;;4991308;28;20458;-71
2022/12/17 17:18:38;;;;;;;60.27;32.17;;;-5.30;99.90;;;;;;4991844;28;20818;-73
2022/12/17 17:21:13;;;;;;;70.83;32.17;;;-5.30;99.90;;;;;;4987877;28;20591;-73
2022/12/17 17:23:39;;;;;;;62.27;33.17;;;-5.30;99.90;;;;;;4986462;28;20446;-73
2022/12/17 17:26:05;;;;;;;81.27;36.47;;;-5.30;99.90;;;;;;4985869;28;20549;-73
2022/12/17 17:28:30;;;;;;;64.60;32.63;;;-5.40;99.90;;;;;;4990683;28;20546;-73
2022/12/17 17:31:00;;;;;;;59.17;32.10;;;-5.40;99.90;;;;;;4991543;28;20186;-73
2022/12/17 17:33:34;;;;;;;72.87;36.30;;;-5.50;99.90;;;;;;4989414;28;20187;-73
2022/12/17 17:36:07;;;;;;;73.63;35.87;;;-5.60;99.90;;;;;;4980135;28;20465;-73
2022/12/17 17:38:35;;;;;;;57.80;30.40;;;-5.70;99.90;;;;;;4988144;28;20438;-72
2022/12/17 17:41:01;;;;;;;59.80;31.07;;;-5.70;99.90;;;;;;4981548;28;20530;-73
2022/12/17 17:43:27;;;;;;;63.53;31.30;;;-5.70;99.90;;;;;;4990244;28;20439;-74
2022/12/17 17:45:54;;;;;;;58.97;31.00;;;-5.70;99.90;;;;;;4989593;28;21877;-72
2022/12/17 17:48:20;;;;;;;54.77;29.97;;;-5.70;99.90;;;;;;4990147;28;20450;-72
2022/12/17 17:51:03;;;;;;;58.57;29.70;;;-5.70;99.90;;;;;;4995176;28;20435;-72
2022/12/17 17:53:29;;;;;;;56.70;27.83;;;-5.70;99.90;;;;;;4989406;28;20182;-72
2022/12/17 17:56:02;;;;;;;62.57;30.70;;;-5.70;99.90;;;;;;4990319;28;20537;-72
2022/12/17 17:58:28;;;;;;;50.00;27.97;;;-5.70;99.90;;;;;;4984309;28;20258;-72
2022/12/17 18:00:53;;;;;;;50.80;28.63;;;-5.70;99.90;;;;;;4991468;28;20522;-73
2022/12/17 18:03:19;;;;;;;57.27;30.00;;;-5.70;99.90;;;;;;4989650;28;20180;-72
2022/12/17 18:05:47;;;;;;;47.90;25.43;;;-5.70;99.90;;;;;;4989939;28;20200;-72
2022/12/17 18:08:13;;;;;;;55.83;28.20;;;-5.80;99.90;;;;;;4989081;28;20183;-73
2022/12/17 18:10:38;;;;;;;63.30;32.53;;;-5.80;99.90;;;;;;4988768;28;20935;-73
2022/12/17 18:15:48;;;;;;;52.40;29.50;;;-5.90;99.90;;;;;;4987329;28;20774;-73
2022/12/17 18:18:14;;;;;;;59.63;30.33;;;-5.90;99.90;;;;;;4985084;28;20430;-73
2022/12/17 18:20:39;;;;;;;53.00;27.77;;;-5.90;99.90;;;;;;4989117;28;20175;-71
2022/12/17 18:23:05;;;;;;;54.43;27.00;;;-5.80;99.90;;;;;;4988682;28;20246;-72
2022/12/17 18:25:30;;;;;;;65.00;30.40;;;-5.90;99.90;;;;;;4990992;28;20168;-74
2022/12/17 18:27:56;;;;;;;52.23;29.40;;;-5.90;99.90;;;;;;4992368;28;20176;-74
2022/12/17 18:30:21;;;;;;;57.90;29.60;;;-5.80;99.90;;;;;;4988841;28;20207;-74
2022/12/17 18:32:47;;;;;;;56.73;30.77;;;-5.80;99.90;;;;;;4990133;28;20641;-71
2022/12/17 18:35:12;;;;;;;56.63;32.03;;;-5.80;99.90;;;;;;4989835;28;20183;-73
2022/12/17 18:37:38;;;;;;;51.33;28.83;;;-5.80;99.90;;;;;;4996445;28;20199;-74
2022/12/17 18:40:05;;;;;;;67.30;29.27;;;-5.80;99.90;;;;;;4996928;28;20176;-72
2022/12/17 18:45:15;;;;;;;63.87;30.07;;;-5.70;99.90;;;;;;4992729;28;20449;-71
2022/12/17 18:47:43;;;;;;;61.20;30.27;;;-5.70;99.90;;;;;;4992301;28;20950;-71
2022/12/17 18:50:09;;;;;;;62.90;31.37;;;-5.70;99.90;;;;;;4989435;28;20199;-72
2022/12/17 18:52:34;;;;;;;65.77;33.37;;;-5.70;99.90;;;;;;4992401;28;20442;-70
2022/12/17 18:55:00;;;;;;;65.17;30.90;;;-5.70;99.90;;;;;;4994375;28;20462;-70
2022/12/17 18:57:25;;;;;;;75.93;34.87;;;-5.60;99.90;;;;;;4995279;28;20188;-71
2022/12/17 18:59:51;;;;;;;75.23;32.57;;;-5.60;99.90;;;;;;4994224;28;20190;-71
2022/12/17 19:02:16;;;;;;;73.80;32.77;;;-5.60;99.90;;;;;;4992841;28;20226;-70
2022/12/17 19:04:42;;;;;;;65.00;30.30;;;-5.70;99.90;;;;;;4986310;28;20637;-71
2022/12/17 19:07:08;;;;;;;61.07;30.53;;;-5.70;99.90;;;;;;4992677;28;20740;-71
2022/12/17 19:09:34;;;;;;;62.40;33.70;;;-5.60;99.90;;;;;;4991508;28;20207;-71
2022/12/17 19:12:00;;;;;;;59.73;32.93;;;-5.60;99.90;;;;;;4993226;28;20203;-70
2022/12/17 19:14:25;;;;;;;55.67;30.30;;;-5.50;99.90;;;;;;4989429;28;20473;-70
2022/12/17 19:16:53;;;;;;;66.90;34.00;;;-5.50;99.90;;;;;;4992557;28;20910;-71
2022/12/17 19:19:19;;;;;;;63.97;31.57;;;-5.50;99.90;;;;;;4992688;28;20192;-71
2022/12/17 19:21:45;;;;;;;63.13;32.93;;;-5.50;99.90;;;;;;4993155;28;20961;-70
2022/12/17 19:24:13;;;;;;;73.00;33.97;;;-5.50;99.90;;;;;;4990948;28;20552;-71
2022/12/17 19:26:39;;;;;;;70.20;33.00;;;-5.50;99.90;;;;;;4993625;28;21019;-71
2022/12/17 19:29:07;;;;;;;62.17;31.63;;;-5.60;99.90;;;;;;4992998;28;20493;-69
2022/12/17 19:31:33;;;;;;;68.00;32.70;;;-5.60;99.90;;;;;;4992113;28;20431;-71
2022/12/17 19:34:01;;;;;;;60.10;33.00;;;-5.60;99.90;;;;;;4992720;28;20438;-71
2022/12/17 19:36:28;;;;;;;59.77;32.23;;;-5.60;99.90;;;;;;4991193;28;20454;-69
2022/12/17 19:38:56;;;;;;;67.07;31.90;;;-5.60;99.90;;;;;;4992723;28;20449;-73
2022/12/17 19:41:22;;;;;;;71.97;33.90;;;-5.60;99.90;;;;;;4991223;28;20447;-71
2022/12/17 19:43:55;;;;;;;67.33;33.03;;;-5.60;99.90;;;;;;4991377;28;20442;-72
2022/12/17 19:46:22;;;;;;;64.57;34.87;;;-5.60;99.90;;;;;;4992266;28;20484;-72
2022/12/17 19:48:48;;;;;;;63.97;30.20;;;-5.60;99.90;;;;;;4992237;28;20823;-71
2022/12/17 19:51:16;;;;;;;60.43;30.20;;;-5.60;99.90;;;;;;4988746;28;20439;-71
2022/12/17 19:53:44;;;;;;;63.30;33.60;;;-5.60;99.90;;;;;;4990415;28;20473;-72
2022/12/17 19:56:12;;;;;;;63.07;32.07;;;-5.70;99.90;;;;;;4990209;28;20462;-73
2022/12/17 19:58:39;;;;;;;59.10;33.03;;;-5.70;99.90;;;;;;4991169;28;20438;-72
2022/12/17 20:01:11;;;;;;;55.97;31.37;;;-5.80;99.90;;;;;;4993270;28;20439;-70
2022/12/17 20:03:37;;;;;;;54.70;30.80;;;-5.80;99.90;;;;;;4991869;28;20434;-70
2022/12/17 20:06:04;;;;;;;60.80;32.10;;;-5.80;99.90;;;;;;4991628;28;20810;-70
2022/12/17 20:08:31;;;;;;;61.53;31.47;;;-5.80;99.90;;;;;;4991019;28;20466;-70
2022/12/17 20:10:57;;;;;;;65.40;30.60;;;-5.80;99.90;;;;;;4991556;28;20944;-70
2022/12/17 20:13:23;;;;;;;56.60;30.97;;;-5.90;99.90;;;;;;4989807;28;20449;-70
2022/12/17 20:15:58;;;;;;;55.43;29.07;;;-5.90;99.90;;;;;;4988865;28;20196;-72
2022/12/17 20:18:24;;;;;;;59.33;31.53;;;-5.90;99.90;;;;;;4984267;28;20426;-72
2022/12/17 20:20:49;;;;;;;48.93;30.40;;;-6.00;99.90;;;;;;4991615;28;20493;-71
2022/12/17 20:23:15;;;;;;;57.77;32.10;;;-6.00;99.90;;;;;;4992303;28;20637;-71
2022/12/17 20:25:40;;;;;;;54.67;32.43;;;-6.10;99.90;;;;;;4990511;28;20179;-71
2022/12/17 20:28:06;;;;;;;76.93;30.83;;;-6.00;99.90;;;;;;4990924;28;20188;-71
2022/12/17 20:30:32;;;;;;;58.10;30.00;;;-6.00;99.90;;;;;;4989055;28;20203;-71
2022/12/17 20:32:57;;;;;;;46.30;28.50;;;-6.10;99.90;;;;;;4995124;28;20179;-71
2022/12/17 20:35:23;;;;;;;56.43;30.30;;;-6.10;99.90;;;;;;4994164;28;20435;-71
2022/12/17 20:37:48;;;;;;;49.13;29.17;;;-6.10;99.90;;;;;;4991116;28;20177;-71
2022/12/17 20:40:14;;;;;;;57.73;29.00;;;-6.10;99.90;;;;;;4991494;28;20267;-71
2022/12/17 20:42:39;;;;;;;52.30;26.63;;;-6.20;99.90;;;;;;4991766;28;20229;-70
2022/12/17 20:45:05;;;;;;;49.33;30.20;;;-6.30;99.90;;;;;;4983460;28;20296;-71
2022/12/17 20:47:31;;;;;;;49.83;27.03;;;-6.30;99.90;;;;;;4992703;28;20206;-71
2022/12/17 20:49:56;;;;;;;58.20;28.70;;;-6.30;99.90;;;;;;4988747;28;20471;-70
2022/12/17 20:52:22;;;;;;;48.03;28.60;;;-6.30;99.90;;;;;;4990554;28;20180;-70
2022/12/17 20:54:48;;;;;;;45.33;25.80;;;-6.30;99.90;;;;;;4989940;28;20672;-70
2022/12/17 20:57:13;;;;;;;50.87;27.33;;;-6.30;99.90;;;;;;4992107;28;20720;-70
2022/12/17 20:59:39;;;;;;;57.73;28.43;;;-6.30;99.90;;;;;;4990942;28;20188;-70
2022/12/17 21:02:04;;;;;;;48.47;27.70;;;-6.30;99.90;;;;;;4991028;28;20187;-70
2022/12/17 21:04:30;;;;;;;45.77;27.00;;;-6.30;99.90;;;;;;4991335;28;20183;-70
2022/12/17 21:06:55;;;;;;;46.33;27.33;;;-6.40;99.90;;;;;;4990732;28;20572;-70
2022/12/17 21:09:21;;;;;;;47.60;27.60;;;-6.40;99.90;;;;;;4984922;28;20267;-70
2022/12/17 21:11:47;;;;;;;45.90;27.63;;;-6.50;99.90;;;;;;4991287;28;20172;-70
2022/12/17 21:14:15;;;;;;;43.43;25.40;;;-6.60;99.90;;;;;;4988639;28;20237;-70
2022/12/17 21:16:43;;;;;;;48.27;28.17;;;-6.50;99.90;;;;;;4990142;28;20198;-71
2022/12/17 21:19:12;;;;;;;46.03;26.40;;;-6.60;99.90;;;;;;4989257;28;20442;-70
2022/12/17 21:21:38;;;;;;;56.03;27.67;;;-6.60;99.90;;;;;;4986476;28;20977;-70
2022/12/17 21:24:04;;;;;;;44.20;25.93;;;-6.60;99.90;;;;;;4987930;28;20434;-70
2022/12/17 21:26:41;;;;;;;58.17;29.20;;;-6.60;99.90;;;;;;4988919;28;20286;-70
2022/12/17 21:29:07;;;;;;;48.93;28.40;;;-6.50;99.90;;;;;;4991276;28;20462;-70
2022/12/17 21:31:46;;;;;;;59.33;28.90;;;-6.60;99.90;;;;;;4991075;28;20493;-70
2022/12/17 21:34:15;;;;;;;41.00;26.80;;;-6.60;99.90;;;;;;4991309;28;20438;-70
2022/12/17 21:36:40;;;;;;;41.80;23.20;;;-6.70;99.90;;;;;;4989114;28;21047;-70
2022/12/17 21:39:08;;;;;;;52.87;29.00;;;-6.70;99.90;;;;;;4990503;28;20533;-70
2022/12/17 21:41:36;;;;;;;51.30;26.50;;;-6.70;99.90;;;;;;4992043;28;20234;-70
2022/12/17 21:44:04;;;;;;;42.10;24.60;;;-6.70;99.90;;;;;;4990906;28;20438;-70
2022/12/17 21:46:30;;;;;;;44.57;25.30;;;-6.70;99.90;;;;;;4989961;28;20463;-70
2022/12/17 21:48:56;;;;;;;44.93;26.47;;;-6.70;99.90;;;;;;4989420;28;20461;-70
2022/12/17 21:51:23;;;;;;;40.93;24.80;;;-6.80;99.90;;;;;;4982451;28;20183;-70
2022/12/17 21:53:58;;;;;;;52.90;27.40;;;-6.80;99.90;;;;;;4990360;28;20454;-70
2022/12/17 21:56:24;;;;;;;42.23;27.83;;;-6.80;99.90;;;;;;4988771;28;20450;-70
2022/12/17 21:58:55;;;;;;;41.67;24.00;;;-6.80;99.90;;;;;;4985645;28;20817;-70
2022/12/17 22:01:24;;;;;;;44.00;25.67;;;-6.70;99.90;;;;;;4985579;28;20179;-69
2022/12/17 22:03:51;;;;;;;46.70;26.80;;;-6.70;99.90;;;;;;4988802;28;20430;-70
2022/12/17 22:06:19;;;;;;;52.57;27.47;;;-6.70;99.90;;;;;;4988424;28;20560;-70
2022/12/17 22:08:45;;;;;;;41.80;25.10;;;-6.80;99.90;;;;;;4989542;28;21011;-69
2022/12/17 22:11:20;;;;;;;49.73;26.60;;;-6.80;99.90;;;;;;4992004;28;20430;-69
2022/12/17 22:14:01;;;;;;;62.17;29.70;;;-6.90;99.90;;;;;;4989513;28;20437;-70
2022/12/17 22:16:29;;;;;;;41.13;23.80;;;-7.00;99.90;;;;;;4992487;28;20538;-70
2022/12/17 22:18:55;;;;;;;45.37;25.13;;;-7.00;99.90;;;;;;4993976;28;20438;-70
2022/12/17 22:21:20;;;;;;;45.83;25.50;;;-6.90;99.90;;;;;;4987189;28;20441;-70
2022/12/17 22:23:47;;;;;;;53.83;26.53;;;-6.90;99.90;;;;;;4993142;28;20180;-69
2022/12/17 22:26:14;;;;;;;50.03;26.77;;;-6.90;99.90;;;;;;4990785;28;20210;-69
2022/12/17 22:28:41;;;;;;;46.57;25.30;;;-6.90;99.90;;;;;;4988908;28;20881;-70
2022/12/17 22:33:51;;;;;;;50.10;27.30;;;-7.00;99.90;;;;;;4993513;28;20441;-70
2022/12/17 22:36:17;;;;;;;46.70;26.17;;;-7.00;99.90;;;;;;4991729;28;20458;-70
2022/12/17 22:38:42;;;;;;;53.90;25.10;;;-7.00;99.90;;;;;;4987868;28;20187;-70
2022/12/17 22:43:28;;;;;;;38.90;24.73;;;-7.00;99.90;;;;;;4991993;28;20434;-69
2022/12/17 22:43:53;;;;;;;39.37;26.50;;;-7.00;99.90;;;;;;4989156;28;20259;-69
2022/12/17 22:46:19;;;;;;;44.73;26.87;;;-7.00;99.90;;;;;;4993517;28;20950;-69
2022/12/17 22:48:44;;;;;;;38.30;24.77;;;-6.90;99.90;;;;;;4994124;28;20209;-70
2022/12/17 22:51:10;;;;;;;39.53;22.90;;;-7.00;99.90;;;;;;4990282;28;20179;-69
2022/12/17 22:53:36;;;;;;;40.57;25.27;;;-7.00;99.90;;;;;;4993055;28;20644;-69
2022/12/17 22:56:05;;;;;;;39.80;23.80;;;-7.00;99.90;;;;;;4988099;28;20453;-70
2022/12/17 22:58:31;;;;;;;47.80;24.90;;;-7.10;99.90;;;;;;4996168;28;20206;-70
2022/12/17 23:00:58;;;;;;;45.60;23.90;;;-7.00;99.90;;;;;;4993036;28;21620;-69
2022/12/17 23:03:23;;;;;;;42.40;26.83;;;-7.10;99.90;;;;;;4989083;28;20214;-70
2022/12/17 23:05:49;;;;;;;46.83;29.13;;;-7.10;99.90;;;;;;4981900;28;21388;-69
2022/12/17 23:08:14;;;;;;;52.03;25.10;;;-7.10;99.90;;;;;;4972968;28;21834;-69
2022/12/17 23:10:40;;;;;;;57.17;26.67;;;-7.10;99.90;;;;;;4989631;28;20198;-69
2022/12/17 23:13:05;;;;;;;39.27;23.60;;;-7.10;99.90;;;;;;4992391;28;20196;-69
2022/12/17 23:15:35;;;;;;;40.20;23.60;;;-7.10;99.90;;;;;;4991249;28;20633;-69
2022/12/17 23:18:04;;;;;;;48.13;23.30;;;-7.10;99.90;;;;;;4991203;28;20267;-69
2022/12/17 23:20:31;;;;;;;47.20;27.60;;;-7.10;99.90;;;;;;4990162;28;20442;-70
2022/12/17 23:22:57;;;;;;;39.20;24.43;;;-7.00;99.90;;;;;;4990618;28;20450;-70
2022/12/17 23:25:24;;;;;;;42.73;24.67;;;-7.00;99.90;;;;;;4992841;28;21013;-69
2022/12/17 23:27:50;;;;;;;40.27;23.00;;;-6.90;99.90;;;;;;4989162;28;20443;-69
2022/12/17 23:30:16;;;;;;;46.37;28.67;;;-6.90;99.90;;;;;;4987039;28;20478;-69
2022/12/17 23:32:42;;;;;;;39.57;24.23;;;-7.00;99.90;;;;;;4988977;28;20435;-69
2022/12/17 23:35:09;;;;;;;52.37;24.63;;;-7.10;99.90;;;;;;4992530;28;20445;-69
2022/12/17 23:37:34;;;;;;;54.90;27.17;;;-7.10;99.90;;;;;;4992830;28;20513;-70
2022/12/17 23:40:00;;;;;;;47.20;27.70;;;-7.10;99.90;;;;;;4991945;28;20477;-69
2022/12/17 23:42:25;;;;;;;45.57;25.33;;;-7.10;99.90;;;;;;4992324;28;20206;-70
2022/12/17 23:44:51;;;;;;;47.03;27.03;;;-7.10;99.90;;;;;;4991576;28;20230;-69
2022/12/17 23:47:17;;;;;;;45.57;26.00;;;-7.00;99.90;;;;;;4992047;28;20203;-70
2022/12/17 23:49:42;;;;;;;43.20;25.00;;;-7.00;99.90;;;;;;4992057;28;20207;-70
2022/12/17 23:52:08;;;;;;;50.70;26.37;;;-7.00;99.90;;;;;;4991918;28;20772;-69
2022/12/17 23:54:34;;;;;;;47.80;26.37;;;-7.10;99.90;;;;;;4992159;28;20657;-70
2022/12/17 23:57:00;;;;;;;44.50;25.37;;;-7.10;99.90;;;;;;4990697;28;20462;-69
2022/12/17 23:59:25;;;;;;;41.80;24.70;;;-7.10;99.90;;;;;;4990614;28;20183;-70
